AirNav   ATP
 
 851 users online  

L62 Elk Hills-Buttonwillow Airport
Buttonwillow, California, USA


FAA INFORMATION EFFECTIVE 07 DECEMBER 2017

Location

FAA Identifier: L62
Lat/Long: 35-21-12.4000N / 119-28-47.0000W
35-21.206667N / 119-28.783333W
35.3534444 / -119.4797222
(estimated)
Elevation: 326 ft. / 99 m (estimated)
Variation: 15E (1985)
From city: 3 miles S of BUTTONWILLOW, CA
Time zone: UTC -8 (UTC -7 during Daylight Saving Time)
Zip code: 93206

Airport Operations

Airport use: Open to the public
Activation date: 12/1970
Control tower: no
ARTCC: LOS ANGELES CENTER
FSS: RANCHO MURIETA FLIGHT SERVICE STATION
NOTAMs facility: RIU (NOTAM-D service available)
Attendance: UNATNDD
Pattern altitude: 1126 ft. MSL
Wind indicator: yes
Segmented circle: yes

Airport Communications

CTAF: 122.9
WX AWOS-3 at MIT (17 nm NE): 121.125 (661-393-8596)

Nearby radio navigation aids

VOR radial/distance  VOR name  Freq  Var
EHFr233/20.3SHAFTER VORTAC115.4014E
FLWr034/24.5FELLOWS VOR/DME117.5016E
AVEr110/30.1AVENAL VOR/DME117.1016E

Airport Services

Parking: tiedowns
Airframe service: NONE
Powerplant service: NONE
Bottled oxygen: NONE
Bulk oxygen: NONE

Runway Information

Runway 11/29

Dimensions: 3260 x 50 ft. / 994 x 15 m
Surface: asphalt, in fair condition
Weight bearing capacity: 
Single wheel: 10.0
Runway edge markings: RUNWAY MARKINGS FADED
RUNWAY 11  RUNWAY 29
Latitude: 35-21.383500N35-21.031333N
Longitude: 119-29.030500W119-28.534833W
Traffic pattern: rightleft
Markings: basic, in good conditionbasic, in good condition
Runway end identifier lights: nono

Airport Ownership and Management from official FAA records

Ownership: Publicly-owned
Owner: COUNTY OF KERN DEPT OF AIRPORTS
3701 WINGS WAY, SUITE 300
BAKERSFIELD, CA 93308-7026
Phone 661-391-1800
Manager: RON BREWSTER
3701 WINGS WAY, SUITE 300
BAKERSFIELD, CA 93308-7026
Phone 661-391-1800
24 HRS: (661) 747-4053 FAX: (661) 391-1801 EMAIL: BREWSTERR@CO.KERN.CA.US

Airport Operational Statistics

Aircraft operations: avg 23/week *
100% transient general aviation
* for 12-month period ending 10 April 2017

Additional Remarks

ARPT CLSD TO NIGHT OPNS.
ELK HILLS-BUTTONWILLOW ELEV 326 PAINTED ON CENTER OF RWY.
CROP DUSTING OPNS PROHIBITED EXCP BY PPR AMGR 661-391-1800.
RADIO CTLD MODEL ACFT BELOW 800 FT AGL INVOF ARPT.

Instrument Procedures

There are no published instrument procedures at L62.

Some nearby airports with instrument procedures:

KMIT - Shafter Airport-Minter Field (17 nm NE)
KBFL - Meadows Field Airport (21 nm E)
L45 - Bakersfield Municipal Airport (24 nm E)
KDLO - Delano Municipal Airport (26 nm NE)
KPTV - Porterville Municipal Airport (45 nm NE)
 
Loc | Ops | Rwys | IFR | FBO | Links
Com | Nav | Svcs | Stats | Notes


 
Area around L62 (Elk Hills-Buttonwillow Airport)
 
Road maps at: MapQuest Bing Google
 
Aerial photo
WARNING: Photo may not be current or correct
Aerial photo of L62 (Elk Hills-Buttonwillow Airport)
Do you have a better or more recent aerial photo of Elk Hills-Buttonwillow Airport that you would like to share? If so, please send us your photo.

 
Sectional chart

 
Airport distance calculator
Flying to Elk Hills-Buttonwillow Airport? Find the distance to fly.

From to L62

Sunrise and sunset
Times for 17-Dec-2017
 Local
(UTC-8)
 Zulu
(UTC)
Morning civil twilight06:3414:34
Sunrise07:0215:02
Sunset16:4600:46
Evening civil twilight17:1501:15

Current date and time
Zulu (UTC)  18-Dec-2017 03:14:55
Local (UTC-8)  17-Dec-2017 19:14:55
 
METAR
KBFL 
22nm E 
180254Z 35007KT 10SM CLR 09/M04 A3009 RMK AO2 SLP188 T00891044 53021
KDLO 
26nm NE 
180255Z AUTO 00000KT 10SM CLR 03/M08 A3009 RMK AO2 T00291077
2CN4 
28nm NW 
SuperAWOS
180255Z AUTO 00000KT 10SM 07/M03 A3013
TAF
KBFL 
22nm E 
171723Z 1718/1818 VRB03KT P6SM SKC
NOTAMs
Click for the latest NOTAMs
NOTAMs are issued by the DoD/FAA and will open in a separate window not controlled by AirNav.

 

 
 

Would you like to see your business listed on this page?

 If your business provides an interesting product or service to pilots, flight crews, aircraft, or users of the Elk Hills-Buttonwillow Airport, you should consider listing it here.  To start the listing process, click on the button below
 
Add a business
 

Other Pages about Elk Hills-Buttonwillow Airport

Update a link
 
Copyright © AirNav, LLC. All rights reserved. Privacy Policy  Contact